PASD

Sand Point Airport

Sand Point, Alaska, USA
PASD 221223Z 2212/2312 14013G21KT P6SM -SHRA SCT015 BKN025 TEMPO 2212/2214 OVC007 FM230400 09010G18KT 2SM -RA BR OVC007 FM230800 13009G17KT 2SM -RA BR SCT007 OVC010 AMD LTD TO CLD VIS AND WIND
Issued Valid From Valid To
Jan-22 @ 12:23 UTC
(5 hours ago)
Jan-22 @ 12:00 UTC
(5 hours ago)
Jan-23 @ 12:00 UTC
(in 19 hours)
Jan-22 @ 12:00 to Jan-23 @ 04:00
PASD 221223Z 2212/2312 14013G21KT P6SM -SHRA SCT015 BKN025
Wind Visibility Clouds Conditions
140° at 13 knots
 Gusting to 21 knots
Greater than 6 miles
  • Scattered at 1,500' AGL
  • Broken at 2,500' AGL
  • Light Rain
Expired Click to View Jan-22 @ 12:00 to Jan-22 @ 14:00
TEMPO 2212/2214 OVC007
Clouds
  • Overcast at 700' AGL
From Jan-23 @ 04:00 to Jan-23 @ 08:00
FM230400 09010G18KT 2SM -RA BR OVC007
Wind Visibility Clouds Conditions
90° at 10 knots
 Gusting to 18 knots
2 miles
  • Overcast at 700' AGL
  • Light Rain
  • Mist
From Jan-23 @ 08:00 to Jan-23 @ 12:00
FM230800 13009G17KT 2SM -RA BR SCT007 OVC010 AMD LTD TO CLD VIS AND WIND
Wind Visibility Clouds Conditions
130° at 9 knots
 Gusting to 17 knots
2 miles
  • Scattered at 700' AGL
  • Overcast at 1,000' AGL
  • Light Rain
  • Mist
PASD 221223Z 2212/2312 14013G21KT P6SM -SHRA SCT015 BKN025 TEMPO 2212/2214 OVC007 FM230400 09010G18KT 2SM -RA BR OVC007 FM230800 13009G17KT 2SM -RA BR SCT007 OVC010 AMD LTD TO CLD VIS AND WIND
Issued Jan-22 @ 12:23 UTC
(5 hours ago)
Valid From Jan-22 @ 12:00 UTC
(5 hours ago)
Valid To Jan-23 @ 12:00 UTC
(in 19 hours)
Jan-22 @ 12:00 - Jan-23 @ 04:00
Wind Visibility
140° at 13 knots
 Gusting to 21 knots
Greater than 6 miles
Clouds
  • Scattered at 1,500' AGL
  • Broken at 2,500' AGL
Conditions
  • Light Rain
Jan-22 @ 12:00 - Jan-22 @ 14:00
Clouds
  • Overcast at 700' AGL
From Jan-23 @ 04:00 - Jan-23 @ 08:00
Wind Visibility
90° at 10 knots
 Gusting to 18 knots
2 miles
Clouds
  • Overcast at 700' AGL
Conditions
  • Light Rain
  • Mist
From Jan-23 @ 08:00 - Jan-23 @ 12:00
Wind Visibility
130° at 9 knots
 Gusting to 17 knots
2 miles
Clouds
  • Scattered at 700' AGL
  • Overcast at 1,000' AGL
Conditions
  • Light Rain
  • Mist